Time;durP1;ratioP1;P1;durP2;ratioP2;P2;SDS_P1;SDS_P2;PMS_P1;PMS_P2;Temp;Humidity;BMP_temperature;BMP_pressure;BME280_temperature;BME280_humidity;BME280_pressure;Samples;Min_cycle;Max_cycle;Signal;HPM_P1;HPM_P2
2023/01/07 00:02:15;;;;;;;53.65;8.15;;;6.90;99.90;;;;;;4977604;28;20022;-70
2023/01/07 00:04:41;;;;;;;42.83;6.72;;;6.90;99.90;;;;;;4958411;28;20110;-70
2023/01/07 00:07:06;;;;;;;28.17;7.10;;;6.90;99.90;;;;;;4958386;28;20036;-70
2023/01/07 00:09:32;;;;;;;36.53;7.20;;;6.80;99.90;;;;;;4958115;28;20031;-70
2023/01/07 00:11:57;;;;;;;37.13;7.88;;;6.90;99.90;;;;;;4968743;28;20027;-70
2023/01/07 00:14:23;;;;;;;31.60;6.80;;;6.90;99.90;;;;;;4977346;28;20499;-70
2023/01/07 00:16:48;;;;;;;37.78;7.13;;;6.80;99.90;;;;;;4977119;28;20471;-70
2023/01/07 00:19:15;;;;;;;45.38;8.10;;;6.80;99.90;;;;;;4977355;28;20065;-70
2023/01/07 00:21:41;;;;;;;29.73;7.20;;;6.70;99.90;;;;;;4977507;28;20027;-70
2023/01/07 00:24:10;;;;;;;33.97;7.97;;;6.70;99.90;;;;;;4975854;28;20570;-70
2023/01/07 00:26:36;;;;;;;31.17;7.82;;;6.70;99.90;;;;;;4977032;28;20106;-70
2023/01/07 00:29:03;;;;;;;38.20;9.90;;;6.70;99.90;;;;;;4977310;28;20082;-70
2023/01/07 00:31:31;;;;;;;33.05;9.63;;;6.70;99.90;;;;;;4977300;28;20051;-70
2023/01/07 00:36:25;;;;;;;37.92;9.60;;;6.60;99.90;;;;;;4976828;28;20491;-70
2023/01/07 00:38:55;;;;;;;43.50;10.50;;;6.60;99.90;;;;;;4970799;28;20023;-70
2023/01/07 00:41:21;;;;;;;37.85;11.05;;;6.60;99.90;;;;;;4957560;28;20020;-70
2023/01/07 00:43:47;;;;;;;36.97;11.18;;;6.50;99.90;;;;;;4959557;28;20446;-70
2023/01/07 00:46:14;;;;;;;39.88;12.10;;;6.50;99.90;;;;;;4976689;28;20102;-70
2023/01/07 00:48:40;;;;;;;30.83;11.55;;;6.60;99.90;;;;;;4977248;28;20058;-70
2023/01/07 00:51:07;;;;;;;36.28;13.65;;;6.60;99.90;;;;;;4963709;28;20073;-70
2023/01/07 00:53:32;;;;;;;36.83;13.15;;;6.60;99.90;;;;;;4957259;29;20023;-70
2023/01/07 00:55:58;;;;;;;51.75;12.75;;;6.50;99.90;;;;;;4963836;28;20364;-70
2023/01/07 00:58:24;;;;;;;51.58;14.50;;;6.50;99.90;;;;;;4976417;28;20035;-70
2023/01/07 01:00:55;;;;;;;37.35;12.68;;;6.40;99.90;;;;;;4976475;28;20019;-70
2023/01/07 01:03:20;;;;;;;39.05;11.45;;;6.40;99.90;;;;;;4974700;28;20023;-70
2023/01/07 01:05:46;;;;;;;41.05;13.88;;;6.50;99.90;;;;;;4975262;28;20022;-70
2023/01/07 01:08:11;;;;;;;48.97;12.98;;;6.40;99.90;;;;;;4975987;28;20034;-70
2023/01/07 01:10:37;;;;;;;42.55;12.27;;;6.40;99.90;;;;;;4972925;28;20028;-70
2023/01/07 01:13:03;;;;;;;42.33;14.27;;;6.40;99.90;;;;;;4975697;28;20067;-70
2023/01/07 01:15:29;;;;;;;35.78;13.73;;;6.40;99.90;;;;;;4976405;28;20494;-70
2023/01/07 01:17:54;;;;;;;48.78;14.00;;;6.40;99.90;;;;;;4959605;28;20032;-70
2023/01/07 01:20:20;;;;;;;37.65;13.40;;;6.40;99.90;;;;;;4956820;29;20062;-70
2023/01/07 01:22:46;;;;;;;36.75;13.73;;;6.40;99.90;;;;;;4956666;28;20024;-70
2023/01/07 01:25:12;;;;;;;37.47;13.93;;;6.40;99.90;;;;;;4956748;29;20475;-70
2023/01/07 01:27:38;;;;;;;35.00;13.77;;;6.30;99.90;;;;;;4956881;29;20098;-70
2023/01/07 01:30:05;;;;;;;39.97;14.35;;;6.30;99.90;;;;;;4956716;29;20506;-70
2023/01/07 01:32:31;;;;;;;39.42;15.88;;;6.30;99.90;;;;;;4959756;28;20054;-70
2023/01/07 01:34:56;;;;;;;44.47;14.65;;;6.30;99.90;;;;;;4975865;28;20070;-70
2023/01/07 01:37:22;;;;;;;53.53;15.18;;;6.20;99.90;;;;;;4975640;28;20071;-70
2023/01/07 01:39:48;;;;;;;47.70;14.82;;;6.20;99.90;;;;;;4959416;28;20039;-70
2023/01/07 01:42:20;;;;;;;37.45;14.98;;;6.20;99.90;;;;;;4956482;28;20031;-70
2023/01/07 01:44:51;;;;;;;45.03;15.53;;;6.20;99.90;;;;;;4968999;28;20023;-70
2023/01/07 01:47:20;;;;;;;45.08;15.38;;;6.10;99.90;;;;;;4973044;28;20031;-70
2023/01/07 01:49:57;;;;;;;51.08;15.43;;;6.10;99.90;;;;;;4956303;29;20376;-70
2023/01/07 01:52:29;;;;;;;38.75;14.80;;;6.10;99.90;;;;;;4956255;29;20045;-70
2023/01/07 01:54:58;;;;;;;44.90;15.30;;;6.10;99.90;;;;;;4957240;28;20031;-70
2023/01/07 01:57:26;;;;;;;55.00;18.10;;;6.00;99.90;;;;;;4960024;28;20058;-70
2023/01/07 01:59:52;;;;;;;38.55;15.65;;;6.10;99.90;;;;;;4954893;28;20024;-70
2023/01/07 02:02:25;;;;;;;36.85;16.00;;;6.10;99.90;;;;;;4965003;28;20042;-70
2023/01/07 02:04:53;;;;;;;40.97;15.52;;;6.10;99.90;;;;;;4975184;28;20102;-70
2023/01/07 02:07:18;;;;;;;45.00;15.85;;;6.10;99.90;;;;;;4974737;28;20039;-70
2023/01/07 02:09:48;;;;;;;46.83;16.58;;;6.10;99.90;;;;;;4975126;28;20023;-70
2023/01/07 02:12:31;;;;;;;49.38;16.70;;;6.10;99.90;;;;;;4970031;28;20147;-70
2023/01/07 02:15:03;;;;;;;65.47;18.63;;;6.20;99.90;;;;;;4955806;29;20392;-70
2023/01/07 02:17:28;;;;;;;47.05;16.35;;;6.20;99.90;;;;;;4955530;28;20042;-70
2023/01/07 02:20:18;;;;;;;41.30;14.65;;;6.40;99.90;;;;;;4956015;29;20059;-70
2023/01/07 02:23:20;;;;;;;44.13;15.85;;;6.40;99.90;;;;;;4965696;28;20098;-70
2023/01/07 02:26:21;;;;;;;43.40;17.02;;;6.40;99.90;;;;;;4957448;28;20110;-70
2023/01/07 02:29:14;;;;;;;54.47;17.33;;;6.40;99.90;;;;;;4955948;28;20035;-70
2023/01/07 02:32:01;;;;;;;51.90;16.83;;;6.40;99.90;;;;;;4970584;28;20059;-70
2023/01/07 02:34:45;;;;;;;47.88;16.33;;;6.40;99.90;;;;;;4974702;28;20505;-70
2023/01/07 02:37:23;;;;;;;44.60;15.25;;;6.40;99.90;;;;;;4974324;28;20122;-70
2023/01/07 02:40:07;;;;;;;42.60;15.75;;;6.30;99.90;;;;;;4974816;28;20557;-71
2023/01/07 02:42:46;;;;;;;41.85;16.55;;;6.30;99.90;;;;;;4974951;28;20030;-70
2023/01/07 02:45:26;;;;;;;52.50;18.65;;;6.30;99.90;;;;;;4975003;28;20019;-70
2023/01/07 02:47:55;;;;;;;48.00;17.25;;;6.20;99.90;;;;;;4974479;28;20031;-70
2023/01/07 02:50:21;;;;;;;53.08;17.40;;;6.20;99.90;;;;;;4974457;28;20149;-70
2023/01/07 02:52:46;;;;;;;46.35;16.95;;;6.20;99.90;;;;;;4974561;28;20096;-71
2023/01/07 02:55:20;;;;;;;47.90;16.88;;;6.10;99.90;;;;;;4974504;28;20474;-70
2023/01/07 02:58:22;;;;;;;44.40;17.85;;;6.10;99.90;;;;;;4974505;28;20482;-70
2023/01/07 03:01:09;;;;;;;42.42;16.40;;;6.10;99.90;;;;;;4974542;28;20063;-70
2023/01/07 03:04:15;;;;;;;52.22;16.85;;;6.10;99.90;;;;;;4974348;28;20025;-70
2023/01/07 03:07:14;;;;;;;43.05;16.98;;;6.10;99.90;;;;;;4955410;28;20135;-70
2023/01/07 03:10:00;;;;;;;38.45;18.02;;;6.10;99.90;;;;;;4974993;28;20030;-70
2023/01/07 03:12:37;;;;;;;43.33;16.77;;;6.10;99.90;;;;;;4974400;28;20031;-70
2023/01/07 03:15:05;;;;;;;47.78;18.85;;;6.10;99.90;;;;;;4974827;28;20077;-70
2023/01/07 03:17:38;;;;;;;56.28;17.35;;;6.20;99.90;;;;;;4974111;28;20078;-70
2023/01/07 03:20:05;;;;;;;51.97;18.65;;;6.30;99.90;;;;;;4976740;28;20023;-70
2023/01/07 03:22:33;;;;;;;49.17;18.42;;;6.30;99.90;;;;;;4978565;28;20394;-70
2023/01/07 03:25:00;;;;;;;52.15;17.92;;;6.30;99.90;;;;;;4978226;28;20078;-70
2023/01/07 03:27:29;;;;;;;60.97;21.60;;;6.40;99.90;;;;;;4978083;28;20030;-71
2023/01/07 03:29:55;;;;;;;51.15;18.25;;;6.40;99.90;;;;;;4978142;28;20077;-70
2023/01/07 03:32:31;;;;;;;52.17;20.27;;;6.50;99.90;;;;;;4978392;28;20034;-70
2023/01/07 03:34:57;;;;;;;49.75;21.05;;;6.60;99.90;;;;;;4978352;28;20023;-70
2023/01/07 03:37:25;;;;;;;57.60;22.17;;;6.60;99.90;;;;;;4978032;28;20398;-70
2023/01/07 03:39:52;;;;;;;48.25;21.90;;;6.70;99.90;;;;;;4978241;28;20019;-70
2023/01/07 03:42:56;;;;;;;58.78;24.92;;;6.80;99.90;;;;;;4977889;28;20038;-70
2023/01/07 03:45:17;;;;;;;62.10;24.02;;;6.80;99.90;;;;;;4978569;28;20422;-70
2023/01/07 03:47:47;;;;;;;64.40;26.63;;;6.90;99.90;;;;;;4976571;28;20031;-70
2023/01/07 03:50:13;;;;;;;62.83;26.00;;;6.90;99.90;;;;;;4978057;28;20026;-70
2023/01/07 03:52:38;;;;;;;53.78;23.75;;;6.90;99.90;;;;;;4973493;28;20031;-70
2023/01/07 03:55:04;;;;;;;64.82;27.92;;;6.90;99.90;;;;;;4958452;29;20510;-70
2023/01/07 03:57:31;;;;;;;66.07;30.63;;;6.90;99.90;;;;;;4960383;28;20026;-71
2023/01/07 03:59:57;;;;;;;65.68;29.60;;;7.00;99.90;;;;;;4958328;29;20462;-71
2023/01/07 04:02:23;;;;;;;63.97;27.52;;;7.00;99.90;;;;;;4960187;28;20108;-69
2023/01/07 04:04:48;;;;;;;69.32;31.10;;;7.00;99.90;;;;;;4977571;28;20483;-70
2023/01/07 04:07:14;;;;;;;63.63;31.17;;;7.10;99.90;;;;;;4977421;28;20027;-70
2023/01/07 04:09:40;;;;;;;63.80;31.27;;;7.10;99.90;;;;;;4977445;28;20042;-70
2023/01/07 04:12:05;;;;;;;65.40;29.67;;;7.10;99.90;;;;;;4963855;28;20054;-70
2023/01/07 04:14:31;;;;;;;74.35;31.80;;;7.10;99.90;;;;;;4958121;28;20431;-70
2023/01/07 04:16:56;;;;;;;73.38;32.08;;;7.10;99.90;;;;;;4968849;28;20062;-70
2023/01/07 04:19:22;;;;;;;79.10;33.58;;;7.20;99.90;;;;;;4961150;28;20027;-70
2023/01/07 04:21:47;;;;;;;78.07;32.72;;;7.20;99.90;;;;;;4958449;29;20106;-70
2023/01/07 04:24:13;;;;;;;72.55;34.42;;;7.20;99.90;;;;;;4972598;28;20081;-71
2023/01/07 04:26:39;;;;;;;76.55;34.45;;;7.20;99.90;;;;;;4977074;28;20019;-70
2023/01/07 04:29:05;;;;;;;76.65;35.10;;;7.30;99.90;;;;;;4974553;28;20034;-70
2023/01/07 04:31:30;;;;;;;82.22;36.03;;;7.30;99.90;;;;;;4975694;28;20486;-70
2023/01/07 04:33:56;;;;;;;68.47;35.53;;;7.30;99.90;;;;;;4971516;28;20109;-70
2023/01/07 04:36:21;;;;;;;87.88;37.63;;;7.30;99.90;;;;;;4957685;28;20035;-70
2023/01/07 04:38:47;;;;;;;82.97;39.55;;;7.30;99.90;;;;;;4958723;28;20383;-70
2023/01/07 04:41:13;;;;;;;74.47;36.28;;;7.40;99.90;;;;;;4976915;28;20031;-70
2023/01/07 04:43:38;;;;;;;86.97;38.88;;;7.40;99.90;;;;;;4974991;28;20406;-70
2023/01/07 04:46:04;;;;;;;75.70;38.00;;;7.40;99.90;;;;;;4957668;28;20086;-70
2023/01/07 04:48:30;;;;;;;85.80;40.28;;;7.40;99.90;;;;;;4965539;28;20034;-70
2023/01/07 04:50:55;;;;;;;85.10;39.30;;;7.50;99.90;;;;;;4976835;28;20496;-70
2023/01/07 04:53:21;;;;;;;90.55;41.00;;;7.50;99.90;;;;;;4976362;28;20089;-70
2023/01/07 04:55:47;;;;;;;82.57;38.40;;;7.50;99.90;;;;;;4962029;28;20487;-70
2023/01/07 04:58:13;;;;;;;82.05;37.83;;;7.50;99.90;;;;;;4970582;28;20038;-70
2023/01/07 05:00:38;;;;;;;84.82;37.95;;;7.50;99.90;;;;;;4976602;28;20073;-70
2023/01/07 05:03:04;;;;;;;83.43;37.13;;;7.50;99.90;;;;;;4976428;28;20034;-70
2023/01/07 05:05:29;;;;;;;77.32;35.10;;;7.50;99.90;;;;;;4972653;28;20019;-70
2023/01/07 05:07:55;;;;;;;70.00;33.60;;;7.50;99.90;;;;;;4976398;28;20538;-70
2023/01/07 05:10:20;;;;;;;75.32;36.58;;;7.40;99.90;;;;;;4976368;28;20398;-70
2023/01/07 05:12:46;;;;;;;70.68;33.13;;;7.50;99.90;;;;;;4976614;28;20030;-71
2023/01/07 05:15:11;;;;;;;66.88;31.38;;;7.50;99.90;;;;;;4976347;28;20390;-70
2023/01/07 05:17:37;;;;;;;61.38;31.08;;;7.50;99.90;;;;;;4975970;28;20023;-70
2023/01/07 05:20:05;;;;;;;60.50;29.50;;;7.60;99.90;;;;;;4976029;28;20023;-70
2023/01/07 05:22:30;;;;;;;64.10;31.10;;;7.50;99.90;;;;;;4974822;28;20394;-70
2023/01/07 05:24:56;;;;;;;55.30;28.27;;;7.50;99.90;;;;;;4957100;28;20029;-71
2023/01/07 05:27:21;;;;;;;65.10;28.92;;;7.60;99.90;;;;;;4956708;28;20391;-71
2023/01/07 05:29:47;;;;;;;52.15;27.48;;;7.60;99.90;;;;;;4972040;28;20023;-71
2023/01/07 05:32:12;;;;;;;52.97;27.65;;;7.60;99.90;;;;;;4961519;28;20027;-71
2023/01/07 05:34:38;;;;;;;52.08;27.48;;;7.60;99.90;;;;;;4956922;29;20031;-71
2023/01/07 05:37:04;;;;;;;52.83;27.23;;;7.60;99.90;;;;;;5019656;23;20485;-70
2023/01/07 05:39:30;;;;;;;50.67;25.45;;;7.60;99.90;;;;;;4976405;28;20073;-70
2023/01/07 05:41:55;;;;;;;52.50;25.55;;;7.70;99.90;;;;;;4971068;28;20019;-70
2023/01/07 05:44:21;;;;;;;47.00;25.42;;;7.60;99.90;;;;;;4957108;29;20039;-71
2023/01/07 05:46:46;;;;;;;51.63;24.23;;;7.70;99.90;;;;;;4959322;28;20059;-70
2023/01/07 05:49:12;;;;;;;44.72;23.05;;;7.60;99.90;;;;;;4956904;29;20137;-70
2023/01/07 05:51:37;;;;;;;43.15;21.50;;;7.70;99.90;;;;;;4957341;29;20102;-70
2023/01/07 05:54:03;;;;;;;41.67;21.20;;;7.70;99.90;;;;;;4970891;28;20034;-71
2023/01/07 05:56:28;;;;;;;39.97;20.05;;;7.80;99.90;;;;;;4975857;28;20033;-71
2023/01/07 05:58:54;;;;;;;34.28;17.65;;;7.80;99.90;;;;;;4970299;28;20047;-70
2023/01/07 06:01:19;;;;;;;28.08;14.68;;;7.90;99.90;;;;;;4956719;29;20031;-70
2023/01/07 06:03:45;;;;;;;20.88;12.07;;;7.90;99.90;;;;;;4956894;29;20027;-70
2023/01/07 06:06:10;;;;;;;18.70;10.85;;;8.10;99.90;;;;;;4965135;28;20086;-70
2023/01/07 06:08:37;;;;;;;24.15;13.63;;;8.20;99.90;;;;;;4975804;28;20033;-71
2023/01/07 06:11:04;;;;;;;28.27;14.95;;;8.30;99.90;;;;;;4976043;28;20037;-70
2023/01/07 06:13:30;;;;;;;28.20;16.88;;;8.30;99.90;;;;;;4976079;28;20065;-71
2023/01/07 06:16:05;;;;;;;41.88;19.30;;;8.40;99.90;;;;;;4974415;28;20069;-70
2023/01/07 06:18:30;;;;;;;35.95;20.35;;;8.40;99.90;;;;;;4970492;28;20046;-70
2023/01/07 06:20:56;;;;;;;40.25;22.15;;;8.40;99.90;;;;;;4968830;28;20027;-70
2023/01/07 06:23:22;;;;;;;40.60;21.48;;;8.50;99.90;;;;;;4975814;28;20073;-71
2023/01/07 06:25:47;;;;;;;43.85;23.20;;;8.50;99.90;;;;;;4975286;28;20019;-70
2023/01/07 06:28:13;;;;;;;45.72;22.52;;;8.50;99.90;;;;;;4975302;28;20035;-71
2023/01/07 06:30:38;;;;;;;45.90;22.98;;;8.60;99.90;;;;;;4975689;28;20077;-71
2023/01/07 06:33:04;;;;;;;51.13;24.38;;;8.60;99.90;;;;;;4975407;28;20038;-71
2023/01/07 06:35:31;;;;;;;55.38;26.92;;;8.70;99.90;;;;;;4975409;28;20045;-71
2023/01/07 06:37:57;;;;;;;59.42;30.42;;;8.70;99.90;;;;;;4975119;28;20081;-71
2023/01/07 06:40:23;;;;;;;73.28;34.72;;;8.80;99.90;;;;;;4975277;28;20022;-71
2023/01/07 06:42:48;;;;;;;71.07;33.42;;;8.90;99.90;;;;;;4975331;28;20030;-70
2023/01/07 06:45:14;;;;;;;70.15;33.58;;;8.90;99.90;;;;;;4975283;28;20027;-71
2023/01/07 06:47:39;;;;;;;77.85;36.97;;;8.90;99.90;;;;;;4974889;28;20030;-71
2023/01/07 06:50:06;;;;;;;82.75;39.47;;;9.00;99.90;;;;;;4975328;28;20019;-70
2023/01/07 06:52:32;;;;;;;86.95;39.78;;;9.00;99.90;;;;;;4975095;28;20480;-71
2023/01/07 06:54:57;;;;;;;87.45;41.30;;;9.10;99.90;;;;;;4974283;28;20073;-70
2023/01/07 06:57:23;;;;;;;79.60;39.67;;;9.10;99.90;;;;;;4972806;28;20079;-70
2023/01/07 06:59:48;;;;;;;88.15;41.25;;;9.20;99.90;;;;;;4970575;28;20051;-71
2023/01/07 07:02:23;;;;;;;87.57;43.42;;;9.20;99.90;;;;;;4955666;29;20506;-70
2023/01/07 07:04:49;;;;;;;83.45;41.67;;;9.20;99.90;;;;;;4955995;29;20028;-70
2023/01/07 07:07:16;;;;;;;88.20;42.70;;;9.20;99.90;;;;;;4971738;28;20027;-70
2023/01/07 07:09:41;;;;;;;77.53;39.15;;;9.20;99.90;;;;;;4973743;28;20082;-70
2023/01/07 07:12:07;;;;;;;77.30;39.22;;;9.20;99.90;;;;;;4975513;28;20426;-70
2023/01/07 07:14:33;;;;;;;72.43;36.75;;;9.30;99.90;;;;;;4975123;28;20418;-70
2023/01/07 07:16:59;;;;;;;69.25;34.83;;;9.30;99.90;;;;;;4974792;28;20031;-70
2023/01/07 07:19:24;;;;;;;70.63;36.38;;;9.30;99.90;;;;;;4956560;28;20030;-71
2023/01/07 07:21:50;;;;;;;84.18;41.78;;;9.30;99.90;;;;;;4955407;29;20513;-70
2023/01/07 07:24:15;;;;;;;89.28;46.70;;;9.30;99.90;;;;;;4955877;29;20026;-70
2023/01/07 07:26:41;;;;;;;95.35;45.38;;;9.40;99.90;;;;;;4957238;28;20042;-71
2023/01/07 07:29:08;;;;;;;92.07;46.13;;;9.30;99.90;;;;;;4955674;28;20483;-70
2023/01/07 07:31:34;;;;;;;96.10;49.25;;;9.40;99.90;;;;;;4955618;28;20027;-70
2023/01/07 07:33:59;;;;;;;102.82;49.47;;;9.40;99.90;;;;;;4955545;28;20118;-70
2023/01/07 07:36:25;;;;;;;99.15;48.55;;;9.40;99.90;;;;;;4955071;28;20376;-70
2023/01/07 07:38:50;;;;;;;92.00;49.22;;;9.40;99.90;;;;;;4955234;28;20039;-70
2023/01/07 07:41:16;;;;;;;98.88;47.78;;;9.40;99.90;;;;;;4955252;28;20020;-70
2023/01/07 07:43:42;;;;;;;99.60;49.05;;;9.40;99.90;;;;;;4955272;28;20027;-70
2023/01/07 07:46:07;;;;;;;102.25;49.28;;;9.40;99.90;;;;;;4955111;28;20475;-70
2023/01/07 07:48:33;;;;;;;120.80;53.75;;;9.40;99.90;;;;;;4968253;28;20035;-71
2023/01/07 07:50:58;;;;;;;104.78;51.17;;;9.40;99.90;;;;;;4974566;28;20034;-71
2023/01/07 07:53:24;;;;;;;102.03;50.05;;;9.40;99.90;;;;;;4974585;28;20038;-71
2023/01/07 07:55:49;;;;;;;106.18;52.05;;;9.40;99.90;;;;;;4974374;28;20064;-71
2023/01/07 07:58:17;;;;;;;93.22;49.60;;;9.40;99.90;;;;;;4974482;28;20110;-72
2023/01/07 08:00:43;;;;;;;94.07;49.22;;;9.40;99.90;;;;;;4974598;28;20058;-71
2023/01/07 08:03:09;;;;;;;104.65;52.08;;;9.50;99.90;;;;;;4974613;28;20039;-71
2023/01/07 08:05:38;;;;;;;104.40;48.58;;;9.40;99.90;;;;;;4975334;28;20022;-71
2023/01/07 08:08:04;;;;;;;92.47;48.97;;;9.40;99.90;;;;;;4977979;28;20043;-71
2023/01/07 08:10:29;;;;;;;102.07;49.53;;;9.40;99.90;;;;;;4978011;28;20123;-71
2023/01/07 08:12:55;;;;;;;88.03;48.70;;;9.50;99.90;;;;;;4978117;28;20022;-71
2023/01/07 08:15:20;;;;;;;90.70;48.22;;;9.50;99.90;;;;;;4977915;28;20398;-71
2023/01/07 08:17:46;;;;;;;96.70;48.05;;;9.50;99.90;;;;;;4977722;28;20390;-71
2023/01/07 08:20:13;;;;;;;91.50;47.90;;;9.50;99.90;;;;;;4978380;28;20147;-71
2023/01/07 08:22:38;;;;;;;89.93;47.63;;;9.50;99.90;;;;;;4977907;28;20027;-71
2023/01/07 08:25:04;;;;;;;81.18;44.58;;;9.50;99.90;;;;;;4977769;28;20038;-71
2023/01/07 08:27:30;;;;;;;88.55;47.60;;;9.50;99.90;;;;;;4977644;28;20062;-71
2023/01/07 08:29:56;;;;;;;91.57;48.65;;;9.50;99.90;;;;;;4978109;28;20101;-71
2023/01/07 08:32:21;;;;;;;90.22;49.63;;;9.50;99.90;;;;;;4971331;28;20037;-71
2023/01/07 08:34:47;;;;;;;87.47;48.65;;;9.50;99.90;;;;;;4977563;28;20391;-70
2023/01/07 08:37:13;;;;;;;81.30;46.38;;;9.50;99.90;;;;;;4984561;23;20501;-71
2023/01/07 08:39:39;;;;;;;89.68;47.00;;;9.50;99.90;;;;;;4977451;28;20113;-70
2023/01/07 08:42:05;;;;;;;84.03;46.80;;;9.50;99.90;;;;;;4977448;28;20101;-70
2023/01/07 08:44:31;;;;;;;79.32;46.38;;;9.60;99.90;;;;;;4977667;28;20029;-70
2023/01/07 08:46:57;;;;;;;79.90;46.90;;;9.60;99.90;;;;;;4977369;28;20023;-70
2023/01/07 08:49:22;;;;;;;73.20;42.60;;;9.60;99.90;;;;;;4977448;28;20454;-70
2023/01/07 08:51:47;;;;;;;84.50;45.78;;;9.60;99.90;;;;;;4977736;28;20027;-70
2023/01/07 08:54:13;;;;;;;74.72;43.88;;;9.60;99.90;;;;;;4977163;28;20034;-70
2023/01/07 08:56:39;;;;;;;73.93;44.88;;;9.60;99.90;;;;;;4977017;28;20030;-70
2023/01/07 08:59:04;;;;;;;79.38;42.78;;;9.60;99.90;;;;;;4975953;28;20027;-70
2023/01/07 09:01:30;;;;;;;76.10;42.72;;;9.50;99.90;;;;;;4977161;28;20076;-70
2023/01/07 09:03:55;;;;;;;69.57;43.17;;;9.60;99.90;;;;;;4977215;28;20031;-70
2023/01/07 09:06:21;;;;;;;73.45;44.55;;;9.60;99.90;;;;;;4976989;28;20023;-70
2023/01/07 09:08:47;;;;;;;71.45;45.20;;;9.60;99.90;;;;;;4975742;28;20022;-70
2023/01/07 09:11:13;;;;;;;68.97;43.28;;;9.60;99.90;;;;;;4976733;28;20109;-70
2023/01/07 09:13:38;;;;;;;82.20;43.75;;;9.70;99.90;;;;;;4977153;28;20034;-70
2023/01/07 09:16:04;;;;;;;75.07;41.95;;;9.70;99.90;;;;;;4976717;28;20035;-70
2023/01/07 09:18:30;;;;;;;71.32;41.03;;;9.70;99.90;;;;;;4976210;28;20030;-70
2023/01/07 09:20:55;;;;;;;72.20;42.22;;;9.70;99.90;;;;;;4976765;28;20027;-70
2023/01/07 09:23:21;;;;;;;63.15;40.65;;;9.80;99.90;;;;;;4976701;28;20019;-70
2023/01/07 09:25:46;;;;;;;63.35;39.45;;;9.80;99.90;;;;;;4977350;28;20030;-70
2023/01/07 09:28:12;;;;;;;63.17;40.10;;;9.80;99.90;;;;;;4977269;28;20030;-70
2023/01/07 09:30:37;;;;;;;70.30;39.78;;;9.80;99.90;;;;;;4976810;28;20061;-70
2023/01/07 09:33:03;;;;;;;67.40;42.35;;;9.80;99.90;;;;;;4976825;28;20066;-70
2023/01/07 09:35:29;;;;;;;61.70;38.92;;;9.80;99.90;;;;;;4976960;28;20118;-70
2023/01/07 09:37:54;;;;;;;66.38;39.35;;;9.80;99.90;;;;;;4976450;28;20035;-70
2023/01/07 09:40:22;;;;;;;61.70;40.53;;;9.90;99.90;;;;;;4977270;28;20038;-70
2023/01/07 09:42:57;;;;;;;59.28;37.55;;;9.90;99.90;;;;;;4976590;28;20023;-70
2023/01/07 09:45:31;;;;;;;56.60;38.03;;;9.90;99.90;;;;;;4975011;28;20479;-70
2023/01/07 09:47:59;;;;;;;67.55;38.25;;;9.90;99.90;;;;;;4976347;28;20479;-71
2023/01/07 09:50:58;;;;;;;56.25;37.17;;;9.90;99.90;;;;;;4976498;28;20091;-70
2023/01/07 09:53:32;;;;;;;56.03;38.25;;;10.00;99.90;;;;;;4976410;28;20387;-71
2023/01/07 09:55:59;;;;;;;50.95;36.13;;;10.00;99.90;;;;;;4976470;28;20382;-71
2023/01/07 09:58:24;;;;;;;53.47;36.38;;;10.00;99.90;;;;;;4974687;28;20042;-71
2023/01/07 10:01:06;;;;;;;52.53;34.38;;;10.10;99.90;;;;;;4976149;28;20027;-70
2023/01/07 10:03:46;;;;;;;51.15;34.47;;;10.10;99.90;;;;;;4976281;28;20015;-70
2023/01/07 10:06:15;;;;;;;50.25;33.00;;;10.10;99.90;;;;;;4976054;28;20391;-70
2023/01/07 10:09:06;;;;;;;47.75;32.30;;;10.20;99.90;;;;;;4975762;28;20158;-70
2023/01/07 10:11:48;;;;;;;45.47;31.95;;;10.10;99.90;;;;;;4975535;28;20034;-70
2023/01/07 10:14:19;;;;;;;42.00;31.17;;;10.10;99.90;;;;;;4975730;28;20042;-70
2023/01/07 10:17:04;;;;;;;44.38;29.90;;;10.10;99.90;;;;;;4975846;28;20027;-70
2023/01/07 10:20:10;;;;;;;44.45;28.98;;;10.10;99.90;;;;;;4968207;28;20070;-70
2023/01/07 10:22:44;;;;;;;48.28;30.15;;;10.10;99.90;;;;;;4949356;29;20039;-70
2023/01/07 10:25:18;;;;;;;45.50;28.52;;;10.10;99.90;;;;;;4973919;28;20428;-70
2023/01/07 10:27:45;;;;;;;39.28;27.65;;;10.10;99.90;;;;;;4974007;28;20069;-71
2023/01/07 10:30:18;;;;;;;35.35;26.52;;;10.10;99.90;;;;;;4954378;28;20035;-71
2023/01/07 10:32:47;;;;;;;39.00;24.30;;;10.10;99.90;;;;;;4963088;28;20383;-70
2023/01/07 10:35:17;;;;;;;39.33;25.23;;;10.10;99.90;;;;;;4965551;28;20027;-70
2023/01/07 10:37:43;;;;;;;34.72;24.90;;;10.10;99.90;;;;;;4973918;28;20031;-71
2023/01/07 10:40:45;;;;;;;32.20;23.88;;;10.10;99.90;;;;;;4975595;28;20375;-70
2023/01/07 10:43:49;;;;;;;29.63;22.63;;;10.20;99.90;;;;;;4975569;28;20023;-70
2023/01/07 10:47:01;;;;;;;28.95;21.38;;;10.10;99.90;;;;;;4975243;28;20019;-70
2023/01/07 10:49:58;;;;;;;32.25;22.65;;;10.10;99.90;;;;;;4963479;28;20050;-70
2023/01/07 10:52:52;;;;;;;33.90;22.08;;;10.00;99.90;;;;;;4966982;28;20077;-71
2023/01/07 10:56:02;;;;;;;26.67;20.27;;;10.10;99.90;;;;;;4975469;28;20109;-71
2023/01/07 10:58:39;;;;;;;27.92;18.83;;;10.10;99.90;;;;;;4969718;28;20430;-71
2023/01/07 11:01:06;;;;;;;26.77;19.60;;;10.10;99.90;;;;;;4975035;28;20109;-71
2023/01/07 11:03:32;;;;;;;31.73;19.45;;;10.10;99.90;;;;;;4974971;28;20034;-71
2023/01/07 11:06:04;;;;;;;25.50;18.42;;;10.10;99.90;;;;;;4973620;28;20026;-70
2023/01/07 11:08:41;;;;;;;24.48;18.38;;;10.10;99.90;;;;;;4974288;28;20030;-71
2023/01/07 11:11:20;;;;;;;19.85;15.73;;;10.10;99.90;;;;;;4974871;28;20027;-71
2023/01/07 11:13:58;;;;;;;28.95;16.88;;;10.10;99.90;;;;;;4974768;28;20030;-71
2023/01/07 11:16:28;;;;;;;23.25;16.75;;;10.10;99.90;;;;;;4974787;28;20027;-71
2023/01/07 11:19:07;;;;;;;21.83;15.75;;;10.10;99.90;;;;;;4974636;28;20048;-70
2023/01/07 11:21:39;;;;;;;28.42;15.07;;;10.10;99.90;;;;;;4974941;28;20031;-71
2023/01/07 11:24:33;;;;;;;22.10;15.88;;;10.10;99.90;;;;;;4974849;28;20030;-71
2023/01/07 11:27:01;;;;;;;;;;;10.10;99.90;;;;;;4975229;28;20035;-71
2023/01/07 11:29:33;;;;;;;20.23;13.82;;;10.10;99.90;;;;;;4974641;28;20285;-71
2023/01/07 11:32:02;;;;;;;20.02;13.73;;;10.10;99.90;;;;;;4975196;28;20172;-71
2023/01/07 11:34:50;;;;;;;22.73;13.13;;;10.10;99.90;;;;;;4974992;28;20030;-71
2023/01/07 11:37:37;;;;;;;14.70;11.98;;;10.10;99.90;;;;;;4974885;28;20031;-71
2023/01/07 11:40:16;;;;;;;15.27;11.90;;;10.10;99.90;;;;;;4974915;28;20018;-71
2023/01/07 11:42:52;;;;;;;15.80;11.68;;;10.10;99.90;;;;;;4978566;28;20467;-71
2023/01/07 11:45:30;;;;;;;27.73;13.07;;;10.10;99.90;;;;;;4979221;28;20023;-70
2023/01/07 11:48:18;;;;;;;16.75;12.52;;;10.20;99.90;;;;;;4978253;28;20495;-70
2023/01/07 11:50:53;;;;;;;26.65;12.20;;;10.30;99.90;;;;;;4978973;28;20538;-70
2023/01/07 11:53:19;;;;;;;15.40;12.07;;;10.30;99.90;;;;;;4978545;28;20038;-71
2023/01/07 11:56:05;;;;;;;24.52;12.05;;;10.20;99.90;;;;;;4976815;28;20034;-70
2023/01/07 11:58:42;;;;;;;17.00;11.98;;;10.20;99.90;;;;;;4960802;28;20514;-71
2023/01/07 12:01:07;;;;;;;19.55;10.90;;;10.30;99.90;;;;;;4958705;28;20110;-70
2023/01/07 12:03:42;;;;;;;23.77;12.10;;;10.20;99.90;;;;;;4958685;29;20459;-70
2023/01/07 12:06:10;;;;;;;15.52;10.90;;;10.30;99.90;;;;;;4959010;28;20023;-70
2023/01/07 12:08:40;;;;;;;14.65;10.55;;;10.30;99.90;;;;;;4958919;29;20027;-70
2023/01/07 12:11:13;;;;;;;12.77;10.55;;;10.30;99.90;;;;;;4958647;29;20114;-70
2023/01/07 12:13:40;;;;;;;19.13;10.23;;;10.30;99.90;;;;;;4957668;28;20031;-70
2023/01/07 12:16:07;;;;;;;13.35;9.13;;;10.30;99.90;;;;;;4958732;28;20035;-70
2023/01/07 12:19:04;;;;;;;12.52;8.95;;;10.30;99.90;;;;;;4958405;28;20115;-70
2023/01/07 12:22:00;;;;;;;15.35;8.73;;;10.30;99.90;;;;;;4958327;28;20035;-70
2023/01/07 12:25:07;;;;;;;10.43;8.95;;;10.30;99.90;;;;;;4949637;28;20046;-71
2023/01/07 12:27:36;;;;;;;13.52;8.60;;;10.40;99.90;;;;;;4974550;28;20100;-70
2023/01/07 12:30:22;;;;;;;11.98;8.50;;;10.40;99.90;;;;;;4976404;28;20027;-70
2023/01/07 12:32:53;;;;;;;10.57;8.43;;;10.40;99.90;;;;;;4977955;28;20027;-70
2023/01/07 12:35:25;;;;;;;14.18;8.38;;;10.40;99.90;;;;;;4977942;28;20030;-70
2023/01/07 12:37:57;;;;;;;18.40;9.15;;;10.40;99.90;;;;;;4976359;28;20034;-70
2023/01/07 12:40:32;;;;;;;14.82;9.07;;;10.40;99.90;;;;;;4976295;28;20504;-70
2023/01/07 12:43:12;;;;;;;14.48;9.57;;;10.40;99.90;;;;;;4976332;28;20073;-71
2023/01/07 12:45:52;;;;;;;13.55;10.45;;;10.40;99.90;;;;;;4976332;28;20082;-70
2023/01/07 12:48:25;;;;;;;15.68;11.27;;;10.40;99.90;;;;;;4976230;28;20114;-70
2023/01/07 12:50:54;;;;;;;16.50;10.88;;;10.30;99.90;;;;;;4976510;28;20030;-70
2023/01/07 12:53:40;;;;;;;14.88;11.82;;;10.40;99.90;;;;;;4972989;28;20030;-71
2023/01/07 12:56:09;;;;;;;16.38;12.10;;;10.40;99.90;;;;;;4974975;28;20536;-71